Aérodrome :
LOGIN :

S'inscrire | Disclaimer

   EN    FR    IT 

 










Légende :    VFR   VFR Marginal   IFR   IFR Intensif   IFR Très Intensif
Visi : 
Plafond : 
>= 8 km
>= 3000ft
5 à 8 km
1000 à 3000 ft
1500m à 5 km
500 à 1000 ft
800 à 1500m
200 à 500 ft
< 800m
< 200 ft
Symboles :   Orages  Brouillard  Fortes neiges  Fortes précipitations  Vent > 20 kt
SIGMETs :   Divers  Orages  Givrage  Turbulence  Onde Orograph.  Cendres Volcan.






- Altitude de l'aérodrome : 322 ft


LHSN - Szolnok

DERNIER METAR :
  • 090255Z 19010KT 1500 BR OVC002 03/03 Q1010 REFG RMK AMB

METARs EXPIRÉS :
  • 090245Z 19010KT 0800 R20/P1500 FG OVC002 03/03 Q1011 TEMPO 1500 BR RMK AMB
  • 090215Z 19008KT 0600 R20/P1500 FG OVC002 03/03 Q1011 NOSIG RMK RED
  • 090145Z 19010KT 0800 R20/P1500 FG OVC002 04/04 Q1011 NOSIG RMK AMB
  • 090115Z 19012KT 0800 R20/P1500 FG BKN002 OVC037 04/04 Q1011 NOSIG RMK AMB
  • 090045Z 19010KT 0800 R20/P1500 FG BKN002 OVC037 04/04 Q1012 NOSIG RMK AMB
  • 090029Z 18010KT 0800 R20/P1500 FG BKN002 OVC037 04/04 Q1012 RMK AMB
  • 090015Z 19008KT 0600 R20/P1500 FG BKN002 OVC028 04/04 Q1012 NOSIG RMK RED

TAF TAF LHSN
Valide du 09 à 00h jusqu'au 09 à 09h UTC


082315Z 0900/0909 18009KT 0350 FG OVC002
TEMPO 0900/0907 VRB02KT 0100 FG VV001
BECMG 0907/0909 6000 NSW NSC



MET'MAP, la Météo Aéronautique d'un coup d'oeil ! - Copyright ORBIFLY Décembre 2007 - Disclaimer

ORBIFLY MET'MAP TEAM :

Programmation & Développement : Alexandra Zaïnal
Sur une idée originale de : Baudouin d'Aumeries
Assistance à la programmation : Marc-Olivier Méhu
Soutien technique & logistique : Manuel Goepfert

Contact : metmap@orbifly.com




SOURCES & CREDITS :

   NOAA